Terminal Aerodrome Forecast
Issued by NWS

Home | Current Version | Previous Version | Text Only | Print | Product List | Glossary Off
Versions: 1 2 3 4 5 6 7 8 9 10 11 12 13 14 15 16 17 18

000
FTUS43 KICT 020520
TAFCNU
TAF
KCNU 020520Z 0206/0306 22014KT P6SM VCTS BKN090CB
     FM020900 27006KT P6SM SCT080 BKN150
     FM021500 01014KT P6SM SCT020 BKN120
     FM030100 04006KT P6SM BKN120=

USA.gov is the U.S. government's official web portal to all federal, state and local government web resources and services.